• Join FlightAware (Why Join?)
  • Login
  • US Flag 
01:29AM EDT


 

Airport Tracker/Info


-or-


 

Live Flight TrackerFlight Track Log ✈ AWI3778 ✈ 07-Aug-2013 ✈ KBTV - KPHL

Flight Track Log - Related Links

Times and Time Zones

All times are in EDT time to prevent confusion due to time zone crossing. See the AWI3778 flight status page for this flight to view local times or setup timezone preferences in your user account.

Time Position Orientation Groundspeed Altitude Reporting Facility
EDT Latitude Longitude Course Direction KTS MPH feet Rate Location/Type
02:58PM 44.4447 -73.1292 173° South 160 184 1,900  Level Boston Center
02:59PM 44.3906 -73.1197 173° South 160 184 3,700 2,040 Climbing Boston Center
03:00PM 44.3261 -73.1103 174° South 222 255 6,000 2,280 Climbing Boston Center
03:01PM 44.2592 -73.1300 192° South 247 284 8,400 2,160 Climbing Boston Center
03:02PM 44.1903 -73.1639 199° South 259 298 10,400 1,800 Climbing Boston Center
03:03PM 44.1169 -73.2267 212° Southwest 287 330 12,000 1,800 Climbing Boston Center
03:04PM 44.0478 -73.2922 214° Southwest 307 353 14,100 1,680 Climbing Boston Center
03:05PM 43.9742 -73.3603 214° Southwest 314 361 15,500 1,440 Climbing Boston Center
03:06PM 43.8967 -73.4311 213° Southwest 325 374 17,100 1,440 Climbing Boston Center
03:07PM 43.8189 -73.5019 213° Southwest 330 380 18,400 1,260 Climbing Boston Center
03:08PM 43.7411 -73.5753 214° Southwest 336 387 19,600 1,080 Climbing Boston Center
03:09PM 43.6653 -73.6428 213° Southwest 354 407 20,600 1,020 Climbing Boston Center
03:10PM 43.5833 -73.7156 213° Southwest 354 407 21,700 1,080 Climbing Boston Center
03:11PM 43.4989 -73.7939 214° Southwest 354 407 22,800 1,080 Climbing Boston Center
03:12PM 43.4169 -73.8692 214° Southwest 354 407 23,900 600 Climbing Boston Center
03:13PM 43.3200 -73.9525 212° Southwest 359 413 24,000  Climbing Boston Center
03:14PM 43.2333 -74.0331 214° Southwest 370 426 24,000  Level Boston Center
03:15PM 43.1425 -74.1103 212° Southwest 382 440 24,000  Level Boston Center
03:16PM 43.0539 -74.1903 213° Southwest 388 447 24,000  Level Boston Center
03:17PM 42.9631 -74.2700 213° Southwest 388 447 24,000  Level Boston Center
03:18PM 42.8783 -74.3469 214° Southwest 381 438 24,000  Level Boston Center
03:19PM 42.7917 -74.4264 214° Southwest 381 438 24,000  Level Boston Center
03:20PM 42.7047 -74.4997 212° Southwest 376 433 24,000  Level Boston Center
03:21PM 42.6158 -74.5786 213° Southwest 376 433 24,000  Level Boston Center
03:22PM 42.5311 -74.6519 213° Southwest 376 433 24,000  Level Boston Center
03:23PM 42.4442 -74.7275 213° Southwest 376 433 24,000 -480 Level Boston Center
03:24PM 42.3569 -74.8058 214° Southwest 376 433 23,100 -1,320 Descending Boston Center
03:27PM 42.1633 -74.9703 212° Southwest 380 437 19,900 -1,320 Descending New York Center
03:28PM 42.0797 -75.0403 212° Southwest 373 429 19,000 -480 Descending New York Center
03:29PM 41.9981 -75.1106 213° Southwest 368 423 19,000  Level New York Center
03:30PM 41.9144 -75.1775 211° Southwest 358 412 19,000 -180 Level New York Center
03:31PM 41.8417 -75.2339 210° Southwest 352 405 18,700 -840 Descending New York Center
03:32PM 41.7600 -75.3006 211° Southwest 352 405 17,400 -1,560 Descending New York Center
03:33PM 41.6717 -75.3725 211° Southwest 347 399 15,700 -1,620 Descending New York Center
03:34PM 41.5922 -75.4336 210° Southwest 347 399 14,300 -1,440 Descending New York Center
03:35PM 41.5128 -75.5000 212° Southwest 347 399 12,800 -1,200 Descending New York Center
03:36PM 41.4458 -75.5533 211° Southwest 335 386 12,000 -420 Descending New York Center
03:37PM 41.3686 -75.6142 211° Southwest 330 380 12,000  Level New York Center
03:38PM 41.2931 -75.6750 211° Southwest 330 380 12,000  Level New York Center
03:39PM 41.1947 -75.6872 185° South 316 364 12,100  Climbing New York Center
03:40PM 41.1031 -75.6889 181° South 332 382 12,000  Descending New York Center
03:41PM 41.0242 -75.6831 177° South 324 373 12,100  Climbing New York Center
03:42PM 40.9258 -75.6431 163° South 329 379 12,000 -60 Descending New York Center
03:43PM 40.8481 -75.6072 161° South 329 379 12,000 -780 Level New York Center
03:44PM 40.7539 -75.5678 162° South 329 379 10,500 -1,020 Descending New York Center
03:45PM 40.6803 -75.5325 160° South 324 373 10,000 -300 Descending New York Center
03:46PM 40.6003 -75.4997 163° South 313 360 10,000  Level New York Center
03:48PM 40.4406 -75.4286 161° South 290 334 10,000 -240 Level New York Center
03:49PM 40.3672 -75.3856 156° South 290 334 9,400 -1,200 Descending New York Center
03:50PM 40.2967 -75.3781 175° South 274 315 7,700 -1,740 Descending New York Center
03:51PM 40.2317 -75.3875 186° South 274 315 6,000 -1,860 Descending New York Center
03:52PM 40.1508 -75.3711 171° South 269 310 4,100 -1,500 Descending New York Center
03:53PM 40.0833 -75.3333 157° South 240 276 3,000 -600 Descending Philadelphia TRACON
03:54PM 40.0333 -75.3167 166° South 193 222 3,000 -480 Level Philadelphia TRACON
03:55PM 39.9833 -75.2833 153° Southeast 174 200 2,100 -900 Descending Philadelphia TRACON
03:56PM 39.9500 -75.2667 159° South 132 152 1,300 -840 Descending Philadelphia TRACON
03:57PM 39.9167 -75.2500 159° South 137 158 500 -840 Descending Philadelphia TRACON